Terminal Aerodrome Forecast
Issued by NWS

Home | Current Version | Previous Version | Text Only | Print | Product List | Glossary On
Versions: 1 2 3 4 5 6 7 8 9 10 11 12 13 14 15
314
FTUS44 KJAN 242330 AAA
TAFHKS
TAF AMD
KHKS 242330Z 2500/2524 00000KT P6SM TS BKN050CB
     FM250030 00000KT P6SM BKN050
     FM251000 00000KT 5SM BR SKC
     FM251500 11005KT P6SM SCT035
     FM251900 10006KT P6SM VCTS BKN050CB=

USA.gov is the U.S. government's official web portal to all federal, state and local government web resources and services.